Antelope, Kansas
Current Conditions -  °F | °C
As of 6:35 AM on Sunday 25 Jan 2015 (Local Time) from KEWK Reporting Station
Overcast Overcast  
Wind Chill: 34°   Ceiling: 3000
Heat Index: 43°   Visibility: 10mi
Dew Point: 32°   Wind: 22mph
Humidity: 66%   Direction: 330°NNW
Pressure: 29.86"   Gusts: 33mph
Location:  38.4689°N, 96.9315°W
Report Text: KEWK 251235Z AUTO 33019G29KT 10SM BKN030 OVC034 06/00 A2986 RMK AO1
Loading
Personal Weather Stations






























Interactive Weather Map New forecast layout! Learn more

10-Day Weather Forecast

Advertisements
Track Severe Weather on mobile